Aérodrome :
LOGIN :

S'inscrire | Disclaimer

   EN    FR    IT 

 










Légende :    VFR   VFR Marginal   IFR   IFR Intensif   IFR Très Intensif
Visi : 
Plafond : 
>= 8 km
>= 3000ft
5 à 8 km
1000 à 3000 ft
1500m à 5 km
500 à 1000 ft
800 à 1500m
200 à 500 ft
< 800m
< 200 ft
Symboles :   Orages  Brouillard  Fortes neiges  Fortes précipitations  Vent > 20 kt
SIGMETs :   Divers  Orages  Givrage  Turbulence  Onde Orograph.  Cendres Volcan.






- Altitude de l'aérodrome : 844 ft
- Code IATA : OSR


LKMT - Ostrava-Mosnov

DERNIER METAR :
  • 101600Z 19013KT 160V220 CAVOK 30/16 Q1011 NOSIG

METARs EXPIRÉS :
  • 101530Z 21017KT CAVOK 30/15 Q1011 NOSIG
  • 101500Z 21017KT CAVOK 30/15 Q1011 NOSIG
  • 101430Z 20015KT CAVOK 30/17 Q1011 NOSIG
  • 101400Z 20015KT CAVOK 30/16 Q1012 NOSIG
  • 101330Z 19014KT CAVOK 30/17 Q1012 NOSIG

TAF TAF LKMT
Valide du 10 à 12h jusqu'au 11 à 18h UTC


101100Z 1012/1118 21010KT CAVOK
TEMPO 1012/1020 22014G26KT
BECMG 1022/1101 01009KT 7000 -RA BKN020
TEMPO 1102/1118 2500 RA OVC007
PROB30
TEMPO 1102/1116 3500 TSRA BKN009CB



MET'MAP, la Météo Aéronautique d'un coup d'oeil ! - Copyright ORBIFLY Décembre 2007 - Disclaimer

ORBIFLY MET'MAP TEAM :

Programmation & Développement : Alexandra Zaïnal
Sur une idée originale de : Baudouin d'Aumeries
Assistance à la programmation : Marc-Olivier Méhu
Soutien technique & logistique : Manuel Goepfert

Contact : metmap@orbifly.com




SOURCES & CREDITS :

   NOAA